Matinicus, Maine
Current Conditions -  °F | °C
As of 3:35 PM on Friday 21 Nov 2014 (Local Time) from KRKD Reporting Station
Clear Clear  
Wind Chill: 17°   Ceiling: Unl
Heat Index: 28°   Visibility: 10mi
Dew Point:   Wind: 14mph
Humidity: 40%   Direction: 290°WNW
Pressure: 30.1"   Gusts: 22mph
Location:  43.86°N, 68.89°W
Report Text: KRKD 212035Z AUTO 29012G19KT 10SM CLR M02/M14 A3010 RMK AO1
Loading
Personal Weather Stations






























Interactive Weather Map New forecast layout! Learn more

10-Day Weather Forecast

Advertisements
Track Severe Weather on mobile